EGNMEGOV

Guest
Details From EGNM - Leeds Bradford
To EGOV - RAF Valley
Flight Number -
Tags generated
Created
Modified
Stats Distance 109 nm / 202 km
Max Altitude 12,300 ft / 3,749 m
Waypoints 3
Social Downloads 0
Likes 0
Share VATSIM

Download

Looking for another format? Having issues loading an existing format? Contact us
Advertisement - Login to hide

Notes

Basic altitude profile: - Ascent Rate: 2500ft/min - Ascent Speed: 250kts - Cruise Altitude: 35000ft - Cruise Speed: 420kts - Descent Rate: 1500ft/min - Descent Speed: 250kts Options: - Use NATs: yes - Use PACOTS: yes - Use low airways: yes - Use high airways: yes

Route

EGNM TADAL EGOV

ID Type Via Altitude Latitude Longitude Leg Dist Tot Dist Heading (true) Name
O EGNM APT - 0 ft / 0 m 53.86603˚ -1.66078˚ - 0 nm - Leeds Bradford
TADAL FIX - 12,300 ft / 3,749 m 53.58722˚ -3.02639˚ 51 nm 51 nm 252° / 250° -
O EGOV APT - 0 ft / 0 m 53.24853˚ -4.53647˚ 57 nm 109 nm 250° / 249° RAF Valley

Altitude Profile

Advertisement - Login to hide

EGNM

Details ICAO EGNM (LBA)
Name Leeds Bradford
Region United Kingdom
Timezone Europe/London (UTC+1.0)
Stats Elevation 681 ft / 208 m (AMSL)
Location 53.866027° -1.660778°
Runways 1
Magnetic Variation 1.229° W

METAR

EGNM 240420Z 02007KT 340V090 3000 BR OVC002 07/06 Q1026

Decode

TAF

TAF TAF EGNM 232254Z 2400/2424 03005KT 9999 BKN006 BECMG 2400/2403 5000 BR BKN004 PROB30 TEMPO 2401/2407 0300 FG BKN000 BECMG 2407/2410 9999 NSW BKN010 BECMG 2410/2413 SCT030 PROB30 TEMPO 2421/2424 7000 BKN005

Decode

Departure Runways

ID Width Length Bearing (true) Bearing (mag) Surface Threshold Offset Overrun Length
14 151 ft / 46 m 7,377 ft / 2,248 m 137.79° 139.02° Concrete 1,024 ft / 312 m 46 ft / 14 m
32 151 ft / 46 m 7,377 ft / 2,248 m 317.81° 319.04° Concrete 899 ft / 274 m 49 ft / 15 m

EGOV

Details ICAO EGOV (HLY)
Name RAF Valley
Region United Kingdom
Timezone Europe/London (UTC+1.0)
Stats Elevation 37 ft / 11 m (AMSL)
Location 53.248528° -4.536473°
Runways 3
Magnetic Variation 2.241° W

METAR

EGOV 240350Z AUTO 04008KT 9999 BKN090/// 13/10 Q1023

Decode

TAF

Not found

Destination Runways

ID Width Length Bearing (true) Bearing (mag) Surface Threshold Offset Overrun Length
01 157 ft / 48 m 5,470 ft / 1,667 m 6.15° 8.39° Asphalt 72 ft / 22 m 7 ft / 2 m
08 154 ft / 47 m 4,174 ft / 1,272 m 69.67° 71.91° Asphalt 702 ft / 214 m 0 ft / 0 m
14 154 ft / 47 m 7,551 ft / 2,302 m 130.54° 132.78° Asphalt 59 ft / 18 m 0 ft / 0 m
19 157 ft / 48 m 5,470 ft / 1,667 m 186.16° 188.40° Asphalt 213 ft / 65 m 0 ft / 0 m
26 154 ft / 47 m 4,174 ft / 1,272 m 249.69° 251.93° Asphalt 400 ft / 122 m 0 ft / 0 m
32 154 ft / 47 m 7,551 ft / 2,302 m 310.56° 312.80° Asphalt 0 ft / 0 m 627 ft / 191 m

Approach Navaids

Runway Type Ident Frequency Range Bearing (true) Bearing (mag) Slope Elevation
14 Localiser VY 109.70 MHz 18 nm / 33 km 132.00° 134.24° - 37 ft / 11 m (AMSL)
14 Glidescope VY 109.70 MHz 10 nm / 19 km 132.00° 134.24° 3.00° 37 ft / 11 m (AMSL)